sensor_id;sensor_type;location;lat;lon;timestamp;P1;durP1;ratioP1;P2;durP2;ratioP2
52554;SDS011;38455;52.710;6.502;2023-12-20T00:01:04;13.38;;;2.28;;
52554;SDS011;38455;52.710;6.502;2023-12-20T00:03:30;16.30;;;2.60;;
52554;SDS011;38455;52.710;6.502;2023-12-20T00:05:56;17.75;;;2.60;;
52554;SDS011;38455;52.710;6.502;2023-12-20T00:08:21;13.68;;;2.13;;
52554;SDS011;38455;52.710;6.502;2023-12-20T00:10:47;16.92;;;2.47;;
52554;SDS011;38455;52.710;6.502;2023-12-20T00:13:13;11.70;;;2.35;;
52554;SDS011;38455;52.710;6.502;2023-12-20T00:15:38;18.48;;;2.95;;
52554;SDS011;38455;52.710;6.502;2023-12-20T00:18:04;19.55;;;2.88;;
52554;SDS011;38455;52.710;6.502;2023-12-20T00:20:30;18.40;;;3.15;;
52554;SDS011;38455;52.710;6.502;2023-12-20T00:22:56;14.40;;;2.60;;
52554;SDS011;38455;52.710;6.502;2023-12-20T00:25:25;16.95;;;2.60;;
52554;SDS011;38455;52.710;6.502;2023-12-20T00:27:51;15.18;;;2.53;;
52554;SDS011;38455;52.710;6.502;2023-12-20T00:30:17;11.43;;;2.95;;
52554;SDS011;38455;52.710;6.502;2023-12-20T00:32:43;15.63;;;3.20;;
52554;SDS011;38455;52.710;6.502;2023-12-20T00:35:14;15.43;;;2.50;;
52554;SDS011;38455;52.710;6.502;2023-12-20T00:37:40;17.45;;;2.60;;
52554;SDS011;38455;52.710;6.502;2023-12-20T00:40:06;20.05;;;2.55;;
52554;SDS011;38455;52.710;6.502;2023-12-20T00:42:33;15.32;;;2.78;;
52554;SDS011;38455;52.710;6.502;2023-12-20T00:44:59;19.40;;;3.03;;
52554;SDS011;38455;52.710;6.502;2023-12-20T00:47:25;17.45;;;3.45;;
52554;SDS011;38455;52.710;6.502;2023-12-20T00:49:51;16.73;;;3.00;;
52554;SDS011;38455;52.710;6.502;2023-12-20T00:52:17;12.48;;;2.55;;
52554;SDS011;38455;52.710;6.502;2023-12-20T00:54:43;14.77;;;2.65;;
52554;SDS011;38455;52.710;6.502;2023-12-20T00:57:09;16.83;;;2.95;;
52554;SDS011;38455;52.710;6.502;2023-12-20T00:59:34;16.00;;;2.97;;
52554;SDS011;38455;52.710;6.502;2023-12-20T01:02:00;16.90;;;3.83;;
52554;SDS011;38455;52.710;6.502;2023-12-20T01:04:26;17.45;;;2.60;;
52554;SDS011;38455;52.710;6.502;2023-12-20T01:06:52;16.75;;;2.97;;
52554;SDS011;38455;52.710;6.502;2023-12-20T01:09:18;18.52;;;3.22;;
52554;SDS011;38455;52.710;6.502;2023-12-20T01:11:44;18.42;;;2.70;;
52554;SDS011;38455;52.710;6.502;2023-12-20T01:14:12;18.60;;;2.83;;
52554;SDS011;38455;52.710;6.502;2023-12-20T01:16:37;13.88;;;2.70;;
52554;SDS011;38455;52.710;6.502;2023-12-20T01:19:03;10.82;;;2.22;;
52554;SDS011;38455;52.710;6.502;2023-12-20T01:21:29;16.00;;;2.45;;
52554;SDS011;38455;52.710;6.502;2023-12-20T01:23:54;27.75;;;3.83;;
52554;SDS011;38455;52.710;6.502;2023-12-20T01:26:20;12.57;;;3.00;;
52554;SDS011;38455;52.710;6.502;2023-12-20T01:28:45;15.25;;;2.88;;
52554;SDS011;38455;52.710;6.502;2023-12-20T01:31:11;14.93;;;2.80;;
52554;SDS011;38455;52.710;6.502;2023-12-20T01:33:37;28.95;;;3.30;;
52554;SDS011;38455;52.710;6.502;2023-12-20T01:36:03;19.10;;;3.33;;
52554;SDS011;38455;52.710;6.502;2023-12-20T01:38:29;18.90;;;3.72;;
52554;SDS011;38455;52.710;6.502;2023-12-20T01:40:54;21.60;;;3.15;;
52554;SDS011;38455;52.710;6.502;2023-12-20T01:43:20;16.90;;;2.63;;
52554;SDS011;38455;52.710;6.502;2023-12-20T01:45:46;20.23;;;4.07;;
52554;SDS011;38455;52.710;6.502;2023-12-20T01:48:12;26.15;;;3.00;;
52554;SDS011;38455;52.710;6.502;2023-12-20T01:50:41;22.48;;;2.90;;
52554;SDS011;38455;52.710;6.502;2023-12-20T01:53:09;20.70;;;3.70;;
52554;SDS011;38455;52.710;6.502;2023-12-20T01:55:39;16.25;;;2.78;;
52554;SDS011;38455;52.710;6.502;2023-12-20T01:58:06;20.25;;;3.67;;
52554;SDS011;38455;52.710;6.502;2023-12-20T02:00:33;17.70;;;3.42;;
52554;SDS011;38455;52.710;6.502;2023-12-20T02:03:03;21.25;;;3.83;;
52554;SDS011;38455;52.710;6.502;2023-12-20T02:05:29;20.50;;;3.90;;
52554;SDS011;38455;52.710;6.502;2023-12-20T02:07:56;19.63;;;3.72;;
52554;SDS011;38455;52.710;6.502;2023-12-20T02:10:22;16.42;;;3.28;;
52554;SDS011;38455;52.710;6.502;2023-12-20T02:12:48;14.73;;;2.42;;
52554;SDS011;38455;52.710;6.502;2023-12-20T02:15:14;17.38;;;3.17;;
52554;SDS011;38455;52.710;6.502;2023-12-20T02:17:40;20.52;;;3.40;;
52554;SDS011;38455;52.710;6.502;2023-12-20T02:20:06;22.55;;;3.10;;
52554;SDS011;38455;52.710;6.502;2023-12-20T02:22:32;12.27;;;3.17;;
52554;SDS011;38455;52.710;6.502;2023-12-20T02:24:57;14.20;;;3.03;;
52554;SDS011;38455;52.710;6.502;2023-12-20T02:27:23;19.33;;;2.75;;
52554;SDS011;38455;52.710;6.502;2023-12-20T02:29:49;16.17;;;3.15;;
52554;SDS011;38455;52.710;6.502;2023-12-20T02:32:16;16.27;;;2.75;;
52554;SDS011;38455;52.710;6.502;2023-12-20T02:34:43;16.63;;;3.22;;
52554;SDS011;38455;52.710;6.502;2023-12-20T02:37:08;14.85;;;3.05;;
52554;SDS011;38455;52.710;6.502;2023-12-20T02:39:34;14.43;;;2.55;;
52554;SDS011;38455;52.710;6.502;2023-12-20T02:42:00;19.10;;;2.95;;
52554;SDS011;38455;52.710;6.502;2023-12-20T02:44:26;20.73;;;3.40;;
52554;SDS011;38455;52.710;6.502;2023-12-20T02:46:51;15.82;;;3.47;;
52554;SDS011;38455;52.710;6.502;2023-12-20T02:49:17;20.17;;;4.03;;
52554;SDS011;38455;52.710;6.502;2023-12-20T02:51:43;28.10;;;4.25;;
52554;SDS011;38455;52.710;6.502;2023-12-20T02:54:09;20.15;;;3.83;;
52554;SDS011;38455;52.710;6.502;2023-12-20T02:56:34;27.02;;;3.80;;
52554;SDS011;38455;52.710;6.502;2023-12-20T02:59:00;22.05;;;4.18;;
52554;SDS011;38455;52.710;6.502;2023-12-20T03:01:27;31.73;;;4.32;;
52554;SDS011;38455;52.710;6.502;2023-12-20T03:03:53;21.52;;;4.15;;
52554;SDS011;38455;52.710;6.502;2023-12-20T03:06:19;17.60;;;4.03;;
52554;SDS011;38455;52.710;6.502;2023-12-20T03:08:45;13.70;;;3.70;;
52554;SDS011;38455;52.710;6.502;2023-12-20T03:11:10;34.10;;;5.20;;
52554;SDS011;38455;52.710;6.502;2023-12-20T03:13:36;17.40;;;3.97;;
52554;SDS011;38455;52.710;6.502;2023-12-20T03:16:08;26.02;;;4.15;;
52554;SDS011;38455;52.710;6.502;2023-12-20T03:18:35;20.88;;;3.70;;
52554;SDS011;38455;52.710;6.502;2023-12-20T03:21:01;29.90;;;4.45;;
52554;SDS011;38455;52.710;6.502;2023-12-20T03:23:26;24.33;;;4.45;;
52554;SDS011;38455;52.710;6.502;2023-12-20T03:25:52;27.45;;;5.10;;
52554;SDS011;38455;52.710;6.502;2023-12-20T03:28:18;30.80;;;5.68;;
52554;SDS011;38455;52.710;6.502;2023-12-20T03:30:44;34.08;;;5.50;;
52554;SDS011;38455;52.710;6.502;2023-12-20T03:33:10;22.75;;;4.03;;
52554;SDS011;38455;52.710;6.502;2023-12-20T03:35:36;24.58;;;4.18;;
52554;SDS011;38455;52.710;6.502;2023-12-20T03:38:02;26.75;;;5.45;;
52554;SDS011;38455;52.710;6.502;2023-12-20T03:40:27;31.65;;;5.90;;
52554;SDS011;38455;52.710;6.502;2023-12-20T03:42:53;29.70;;;4.75;;
52554;SDS011;38455;52.710;6.502;2023-12-20T03:45:19;34.63;;;4.57;;
52554;SDS011;38455;52.710;6.502;2023-12-20T03:47:44;31.83;;;4.50;;
52554;SDS011;38455;52.710;6.502;2023-12-20T03:50:10;35.60;;;7.38;;
52554;SDS011;38455;52.710;6.502;2023-12-20T03:52:36;27.40;;;4.72;;
52554;SDS011;38455;52.710;6.502;2023-12-20T03:55:01;27.50;;;5.47;;
52554;SDS011;38455;52.710;6.502;2023-12-20T03:57:28;20.90;;;4.00;;
52554;SDS011;38455;52.710;6.502;2023-12-20T03:59:53;24.77;;;5.85;;
52554;SDS011;38455;52.710;6.502;2023-12-20T04:02:19;30.27;;;4.95;;
52554;SDS011;38455;52.710;6.502;2023-12-20T04:04:45;33.80;;;5.68;;
52554;SDS011;38455;52.710;6.502;2023-12-20T04:07:10;35.70;;;5.85;;
52554;SDS011;38455;52.710;6.502;2023-12-20T04:09:36;28.90;;;5.13;;
52554;SDS011;38455;52.710;6.502;2023-12-20T04:12:01;34.90;;;6.28;;
52554;SDS011;38455;52.710;6.502;2023-12-20T04:14:27;25.05;;;4.93;;
52554;SDS011;38455;52.710;6.502;2023-12-20T04:16:53;30.67;;;5.00;;
52554;SDS011;38455;52.710;6.502;2023-12-20T04:19:19;32.58;;;5.72;;
52554;SDS011;38455;52.710;6.502;2023-12-20T04:21:45;29.85;;;5.20;;
52554;SDS011;38455;52.710;6.502;2023-12-20T04:24:10;34.08;;;6.25;;
52554;SDS011;38455;52.710;6.502;2023-12-20T04:26:36;35.08;;;5.57;;
52554;SDS011;38455;52.710;6.502;2023-12-20T04:29:02;35.60;;;5.80;;
52554;SDS011;38455;52.710;6.502;2023-12-20T04:31:27;31.35;;;5.82;;
52554;SDS011;38455;52.710;6.502;2023-12-20T04:33:53;26.88;;;5.22;;
52554;SDS011;38455;52.710;6.502;2023-12-20T04:36:19;23.58;;;5.35;;
52554;SDS011;38455;52.710;6.502;2023-12-20T04:38:44;32.63;;;5.22;;
52554;SDS011;38455;52.710;6.502;2023-12-20T04:41:10;28.05;;;5.25;;
52554;SDS011;38455;52.710;6.502;2023-12-20T04:43:36;28.50;;;4.95;;
52554;SDS011;38455;52.710;6.502;2023-12-20T04:46:02;24.23;;;4.40;;
52554;SDS011;38455;52.710;6.502;2023-12-20T04:48:28;35.42;;;4.80;;
52554;SDS011;38455;52.710;6.502;2023-12-20T04:50:53;18.63;;;4.85;;
52554;SDS011;38455;52.710;6.502;2023-12-20T04:53:19;26.90;;;4.20;;
52554;SDS011;38455;52.710;6.502;2023-12-20T04:55:45;26.70;;;4.93;;
52554;SDS011;38455;52.710;6.502;2023-12-20T04:58:10;29.10;;;4.57;;
52554;SDS011;38455;52.710;6.502;2023-12-20T05:00:36;26.55;;;4.35;;
52554;SDS011;38455;52.710;6.502;2023-12-20T05:03:03;22.55;;;4.40;;
52554;SDS011;38455;52.710;6.502;2023-12-20T05:05:29;39.33;;;5.18;;
52554;SDS011;38455;52.710;6.502;2023-12-20T05:07:54;28.23;;;4.93;;
52554;SDS011;38455;52.710;6.502;2023-12-20T05:10:20;26.52;;;4.85;;
52554;SDS011;38455;52.710;6.502;2023-12-20T05:12:46;18.23;;;4.82;;
52554;SDS011;38455;52.710;6.502;2023-12-20T05:15:11;24.08;;;5.35;;
52554;SDS011;38455;52.710;6.502;2023-12-20T05:17:37;26.67;;;5.00;;
52554;SDS011;38455;52.710;6.502;2023-12-20T05:20:03;25.60;;;5.28;;
52554;SDS011;38455;52.710;6.502;2023-12-20T05:22:29;28.67;;;5.20;;
52554;SDS011;38455;52.710;6.502;2023-12-20T05:24:54;33.55;;;5.03;;
52554;SDS011;38455;52.710;6.502;2023-12-20T05:27:20;22.23;;;4.82;;
52554;SDS011;38455;52.710;6.502;2023-12-20T05:29:46;25.67;;;4.80;;
52554;SDS011;38455;52.710;6.502;2023-12-20T05:32:11;28.88;;;5.00;;
52554;SDS011;38455;52.710;6.502;2023-12-20T05:34:37;27.17;;;5.05;;
52554;SDS011;38455;52.710;6.502;2023-12-20T05:37:03;30.85;;;4.80;;
52554;SDS011;38455;52.710;6.502;2023-12-20T05:39:28;34.25;;;5.10;;
52554;SDS011;38455;52.710;6.502;2023-12-20T05:41:56;24.35;;;5.05;;
52554;SDS011;38455;52.710;6.502;2023-12-20T05:44:21;33.00;;;5.35;;
52554;SDS011;38455;52.710;6.502;2023-12-20T05:46:47;26.13;;;4.28;;
52554;SDS011;38455;52.710;6.502;2023-12-20T05:49:13;21.17;;;3.83;;
52554;SDS011;38455;52.710;6.502;2023-12-20T05:51:39;20.67;;;5.70;;
52554;SDS011;38455;52.710;6.502;2023-12-20T05:54:04;27.77;;;5.15;;
52554;SDS011;38455;52.710;6.502;2023-12-20T05:56:30;27.00;;;4.80;;
52554;SDS011;38455;52.710;6.502;2023-12-20T05:58:56;29.02;;;4.47;;
52554;SDS011;38455;52.710;6.502;2023-12-20T06:01:22;27.63;;;5.30;;
52554;SDS011;38455;52.710;6.502;2023-12-20T06:03:47;35.90;;;6.00;;
52554;SDS011;38455;52.710;6.502;2023-12-20T06:06:13;28.02;;;5.10;;
52554;SDS011;38455;52.710;6.502;2023-12-20T06:08:40;37.10;;;5.40;;
52554;SDS011;38455;52.710;6.502;2023-12-20T06:11:06;30.48;;;5.13;;
52554;SDS011;38455;52.710;6.502;2023-12-20T06:13:32;31.65;;;6.22;;
52554;SDS011;38455;52.710;6.502;2023-12-20T06:15:57;23.70;;;4.57;;
52554;SDS011;38455;52.710;6.502;2023-12-20T06:18:23;30.33;;;4.30;;
52554;SDS011;38455;52.710;6.502;2023-12-20T06:20:49;32.05;;;5.57;;
52554;SDS011;38455;52.710;6.502;2023-12-20T06:23:15;24.95;;;5.30;;
52554;SDS011;38455;52.710;6.502;2023-12-20T06:25:41;24.63;;;4.03;;
52554;SDS011;38455;52.710;6.502;2023-12-20T06:28:06;24.35;;;4.22;;
52554;SDS011;38455;52.710;6.502;2023-12-20T06:30:32;28.00;;;4.72;;
52554;SDS011;38455;52.710;6.502;2023-12-20T06:32:59;40.35;;;6.10;;
52554;SDS011;38455;52.710;6.502;2023-12-20T06:35:25;20.95;;;4.20;;
52554;SDS011;38455;52.710;6.502;2023-12-20T06:37:53;30.42;;;4.80;;
52554;SDS011;38455;52.710;6.502;2023-12-20T06:40:18;24.98;;;4.25;;
52554;SDS011;38455;52.710;6.502;2023-12-20T06:42:44;33.13;;;5.25;;
52554;SDS011;38455;52.710;6.502;2023-12-20T06:45:10;34.55;;;6.20;;
52554;SDS011;38455;52.710;6.502;2023-12-20T06:47:36;21.88;;;4.43;;
52554;SDS011;38455;52.710;6.502;2023-12-20T06:50:02;22.98;;;4.28;;
52554;SDS011;38455;52.710;6.502;2023-12-20T06:52:28;22.17;;;4.35;;
52554;SDS011;38455;52.710;6.502;2023-12-20T06:54:53;31.58;;;4.65;;
52554;SDS011;38455;52.710;6.502;2023-12-20T06:57:21;21.15;;;4.18;;
52554;SDS011;38455;52.710;6.502;2023-12-20T06:59:46;18.67;;;4.07;;
52554;SDS011;38455;52.710;6.502;2023-12-20T07:02:12;24.60;;;4.20;;
52554;SDS011;38455;52.710;6.502;2023-12-20T07:04:41;22.63;;;4.32;;
52554;SDS011;38455;52.710;6.502;2023-12-20T07:07:07;23.70;;;4.20;;
52554;SDS011;38455;52.710;6.502;2023-12-20T07:09:33;31.27;;;4.95;;
52554;SDS011;38455;52.710;6.502;2023-12-20T07:11:58;24.52;;;4.38;;
52554;SDS011;38455;52.710;6.502;2023-12-20T07:14:24;28.58;;;4.65;;
52554;SDS011;38455;52.710;6.502;2023-12-20T07:16:51;23.98;;;5.10;;
52554;SDS011;38455;52.710;6.502;2023-12-20T07:19:17;34.20;;;6.68;;
52554;SDS011;38455;52.710;6.502;2023-12-20T07:21:43;24.55;;;4.07;;
52554;SDS011;38455;52.710;6.502;2023-12-20T07:24:09;25.50;;;4.43;;
52554;SDS011;38455;52.710;6.502;2023-12-20T07:26:34;26.40;;;4.82;;
52554;SDS011;38455;52.710;6.502;2023-12-20T07:29:00;25.60;;;5.25;;
52554;SDS011;38455;52.710;6.502;2023-12-20T07:31:26;22.65;;;4.53;;
52554;SDS011;38455;52.710;6.502;2023-12-20T07:33:51;28.90;;;4.18;;
52554;SDS011;38455;52.710;6.502;2023-12-20T07:36:19;29.23;;;4.85;;
52554;SDS011;38455;52.710;6.502;2023-12-20T07:38:44;20.65;;;4.28;;
52554;SDS011;38455;52.710;6.502;2023-12-20T07:41:10;23.23;;;4.07;;
52554;SDS011;38455;52.710;6.502;2023-12-20T07:43:36;30.73;;;5.80;;
52554;SDS011;38455;52.710;6.502;2023-12-20T07:46:08;21.42;;;4.13;;
52554;SDS011;38455;52.710;6.502;2023-12-20T07:48:34;22.00;;;4.55;;
52554;SDS011;38455;52.710;6.502;2023-12-20T07:51:00;29.15;;;4.63;;
52554;SDS011;38455;52.710;6.502;2023-12-20T07:53:27;22.42;;;4.97;;
52554;SDS011;38455;52.710;6.502;2023-12-20T07:55:52;26.63;;;5.15;;
52554;SDS011;38455;52.710;6.502;2023-12-20T07:58:18;33.83;;;5.95;;
52554;SDS011;38455;52.710;6.502;2023-12-20T08:00:44;34.03;;;5.55;;
52554;SDS011;38455;52.710;6.502;2023-12-20T08:03:10;35.10;;;6.05;;
52554;SDS011;38455;52.710;6.502;2023-12-20T08:05:35;38.85;;;6.22;;
52554;SDS011;38455;52.710;6.502;2023-12-20T08:08:02;40.13;;;5.75;;
52554;SDS011;38455;52.710;6.502;2023-12-20T08:10:28;24.30;;;4.40;;
52554;SDS011;38455;52.710;6.502;2023-12-20T08:12:55;25.70;;;4.57;;
52554;SDS011;38455;52.710;6.502;2023-12-20T08:15:20;32.75;;;4.97;;
52554;SDS011;38455;52.710;6.502;2023-12-20T08:17:46;26.73;;;5.72;;
52554;SDS011;38455;52.710;6.502;2023-12-20T08:20:12;23.40;;;5.00;;
52554;SDS011;38455;52.710;6.502;2023-12-20T08:22:37;17.85;;;4.00;;
52554;SDS011;38455;52.710;6.502;2023-12-20T08:25:03;31.13;;;5.50;;
52554;SDS011;38455;52.710;6.502;2023-12-20T08:27:29;30.45;;;4.95;;
52554;SDS011;38455;52.710;6.502;2023-12-20T08:29:56;27.70;;;4.65;;
52554;SDS011;38455;52.710;6.502;2023-12-20T08:32:24;26.70;;;6.78;;
52554;SDS011;38455;52.710;6.502;2023-12-20T08:34:51;31.80;;;4.78;;
52554;SDS011;38455;52.710;6.502;2023-12-20T08:37:17;27.92;;;5.32;;
52554;SDS011;38455;52.710;6.502;2023-12-20T08:39:43;29.17;;;5.30;;
52554;SDS011;38455;52.710;6.502;2023-12-20T08:42:09;41.85;;;5.60;;
52554;SDS011;38455;52.710;6.502;2023-12-20T08:44:35;31.60;;;4.55;;
52554;SDS011;38455;52.710;6.502;2023-12-20T08:47:00;40.95;;;6.40;;
52554;SDS011;38455;52.710;6.502;2023-12-20T08:49:26;33.40;;;5.45;;
52554;SDS011;38455;52.710;6.502;2023-12-20T08:51:53;32.20;;;5.57;;
52554;SDS011;38455;52.710;6.502;2023-12-20T08:54:18;32.45;;;6.65;;
52554;SDS011;38455;52.710;6.502;2023-12-20T08:56:44;24.30;;;6.00;;
52554;SDS011;38455;52.710;6.502;2023-12-20T08:59:11;30.85;;;5.78;;
52554;SDS011;38455;52.710;6.502;2023-12-20T09:01:37;24.27;;;4.80;;
52554;SDS011;38455;52.710;6.502;2023-12-20T09:04:02;22.73;;;4.32;;
52554;SDS011;38455;52.710;6.502;2023-12-20T09:06:28;19.83;;;4.05;;
52554;SDS011;38455;52.710;6.502;2023-12-20T09:08:54;29.70;;;4.85;;
52554;SDS011;38455;52.710;6.502;2023-12-20T09:11:19;23.17;;;4.38;;
52554;SDS011;38455;52.710;6.502;2023-12-20T09:13:45;20.00;;;4.05;;
52554;SDS011;38455;52.710;6.502;2023-12-20T09:16:11;24.67;;;4.85;;
52554;SDS011;38455;52.710;6.502;2023-12-20T09:18:38;25.63;;;4.75;;
52554;SDS011;38455;52.710;6.502;2023-12-20T09:21:03;23.00;;;4.70;;
52554;SDS011;38455;52.710;6.502;2023-12-20T09:23:29;24.80;;;4.85;;
52554;SDS011;38455;52.710;6.502;2023-12-20T09:25:55;20.23;;;4.03;;
52554;SDS011;38455;52.710;6.502;2023-12-20T09:28:21;21.13;;;4.53;;
52554;SDS011;38455;52.710;6.502;2023-12-20T09:30:46;23.80;;;4.22;;
52554;SDS011;38455;52.710;6.502;2023-12-20T09:33:12;22.40;;;4.40;;
52554;SDS011;38455;52.710;6.502;2023-12-20T09:35:39;27.02;;;5.78;;
52554;SDS011;38455;52.710;6.502;2023-12-20T09:38:05;21.83;;;4.10;;
52554;SDS011;38455;52.710;6.502;2023-12-20T09:40:30;25.08;;;4.10;;
52554;SDS011;38455;52.710;6.502;2023-12-20T09:43:20;27.35;;;4.97;;
52554;SDS011;38455;52.710;6.502;2023-12-20T09:45:46;28.92;;;4.82;;
52554;SDS011;38455;52.710;6.502;2023-12-20T09:48:13;18.55;;;4.50;;
52554;SDS011;38455;52.710;6.502;2023-12-20T09:50:41;19.55;;;4.00;;
52554;SDS011;38455;52.710;6.502;2023-12-20T09:53:10;25.83;;;4.13;;
52554;SDS011;38455;52.710;6.502;2023-12-20T09:55:39;24.15;;;3.90;;
52554;SDS011;38455;52.710;6.502;2023-12-20T09:58:06;27.98;;;4.68;;
52554;SDS011;38455;52.710;6.502;2023-12-20T10:00:34;29.40;;;4.55;;
52554;SDS011;38455;52.710;6.502;2023-12-20T10:03:00;18.27;;;3.70;;
52554;SDS011;38455;52.710;6.502;2023-12-20T10:05:31;28.13;;;4.47;;
52554;SDS011;38455;52.710;6.502;2023-12-20T10:07:57;23.88;;;4.40;;
52554;SDS011;38455;52.710;6.502;2023-12-20T10:10:24;17.85;;;3.45;;
52554;SDS011;38455;52.710;6.502;2023-12-20T10:15:28;10.77;;;2.55;;
52554;SDS011;38455;52.710;6.502;2023-12-20T10:17:53;11.93;;;2.45;;
52554;SDS011;38455;52.710;6.502;2023-12-20T10:20:19;11.70;;;2.65;;
52554;SDS011;38455;52.710;6.502;2023-12-20T10:22:46;9.57;;;2.30;;
52554;SDS011;38455;52.710;6.502;2023-12-20T10:25:12;9.27;;;1.60;;
52554;SDS011;38455;52.710;6.502;2023-12-20T10:27:38;13.38;;;2.03;;
52554;SDS011;38455;52.710;6.502;2023-12-20T10:30:04;6.97;;;1.63;;
52554;SDS011;38455;52.710;6.502;2023-12-20T10:32:30;11.20;;;1.80;;
52554;SDS011;38455;52.710;6.502;2023-12-20T10:34:56;8.30;;;1.75;;
52554;SDS011;38455;52.710;6.502;2023-12-20T10:37:22;11.38;;;1.75;;
52554;SDS011;38455;52.710;6.502;2023-12-20T10:39:51;10.57;;;2.05;;
52554;SDS011;38455;52.710;6.502;2023-12-20T10:42:21;9.63;;;1.70;;
52554;SDS011;38455;52.710;6.502;2023-12-20T10:44:49;12.93;;;2.85;;
52554;SDS011;38455;52.710;6.502;2023-12-20T10:47:16;12.80;;;2.33;;
52554;SDS011;38455;52.710;6.502;2023-12-20T10:49:42;12.73;;;1.75;;
52554;SDS011;38455;52.710;6.502;2023-12-20T10:52:09;8.90;;;1.88;;
52554;SDS011;38455;52.710;6.502;2023-12-20T10:54:38;13.43;;;2.28;;
52554;SDS011;38455;52.710;6.502;2023-12-20T10:57:05;17.13;;;1.92;;
52554;SDS011;38455;52.710;6.502;2023-12-20T10:59:32;10.32;;;1.63;;
52554;SDS011;38455;52.710;6.502;2023-12-20T11:02:02;15.60;;;2.17;;
52554;SDS011;38455;52.710;6.502;2023-12-20T11:04:44;13.60;;;1.88;;
52554;SDS011;38455;52.710;6.502;2023-12-20T11:07:25;12.60;;;1.90;;
52554;SDS011;38455;52.710;6.502;2023-12-20T11:09:59;6.70;;;2.20;;
52554;SDS011;38455;52.710;6.502;2023-12-20T11:13:06;8.75;;;1.67;;
52554;SDS011;38455;52.710;6.502;2023-12-20T11:15:37;15.02;;;1.67;;
52554;SDS011;38455;52.710;6.502;2023-12-20T11:18:03;10.63;;;1.80;;
52554;SDS011;38455;52.710;6.502;2023-12-20T11:20:37;11.13;;;1.83;;
52554;SDS011;38455;52.710;6.502;2023-12-20T11:23:04;9.85;;;1.33;;
52554;SDS011;38455;52.710;6.502;2023-12-20T11:25:30;15.13;;;2.33;;
52554;SDS011;38455;52.710;6.502;2023-12-20T11:28:22;10.57;;;2.30;;
52554;SDS011;38455;52.710;6.502;2023-12-20T11:30:53;12.90;;;1.55;;
52554;SDS011;38455;52.710;6.502;2023-12-20T11:33:23;17.63;;;2.47;;
52554;SDS011;38455;52.710;6.502;2023-12-20T11:35:50;9.85;;;1.80;;
52554;SDS011;38455;52.710;6.502;2023-12-20T11:38:16;13.45;;;2.00;;
52554;SDS011;38455;52.710;6.502;2023-12-20T11:40:42;15.40;;;2.60;;
52554;SDS011;38455;52.710;6.502;2023-12-20T11:43:09;11.15;;;2.63;;
52554;SDS011;38455;52.710;6.502;2023-12-20T11:45:35;12.45;;;2.45;;
52554;SDS011;38455;52.710;6.502;2023-12-20T11:48:01;18.27;;;3.70;;
52554;SDS011;38455;52.710;6.502;2023-12-20T11:50:27;14.30;;;2.15;;
52554;SDS011;38455;52.710;6.502;2023-12-20T11:52:55;9.65;;;1.85;;
52554;SDS011;38455;52.710;6.502;2023-12-20T11:55:21;10.18;;;2.17;;
52554;SDS011;38455;52.710;6.502;2023-12-20T11:57:47;9.68;;;1.73;;
52554;SDS011;38455;52.710;6.502;2023-12-20T12:00:13;10.85;;;2.30;;
52554;SDS011;38455;52.710;6.502;2023-12-20T12:02:40;12.52;;;1.92;;
52554;SDS011;38455;52.710;6.502;2023-12-20T12:05:06;12.18;;;1.90;;
52554;SDS011;38455;52.710;6.502;2023-12-20T12:07:33;10.68;;;2.10;;
52554;SDS011;38455;52.710;6.502;2023-12-20T12:09:59;16.95;;;2.47;;
52554;SDS011;38455;52.710;6.502;2023-12-20T12:12:25;10.45;;;1.88;;
52554;SDS011;38455;52.710;6.502;2023-12-20T12:14:52;10.50;;;1.77;;
52554;SDS011;38455;52.710;6.502;2023-12-20T12:17:19;10.75;;;1.95;;
52554;SDS011;38455;52.710;6.502;2023-12-20T12:19:45;13.85;;;1.88;;
52554;SDS011;38455;52.710;6.502;2023-12-20T12:22:12;6.70;;;1.33;;
52554;SDS011;38455;52.710;6.502;2023-12-20T12:24:45;7.65;;;1.80;;
52554;SDS011;38455;52.710;6.502;2023-12-20T12:27:12;12.45;;;1.85;;
52554;SDS011;38455;52.710;6.502;2023-12-20T12:29:38;11.68;;;1.83;;
52554;SDS011;38455;52.710;6.502;2023-12-20T12:32:04;11.93;;;1.90;;
52554;SDS011;38455;52.710;6.502;2023-12-20T12:34:34;12.95;;;2.35;;
52554;SDS011;38455;52.710;6.502;2023-12-20T12:37:01;10.00;;;2.00;;
52554;SDS011;38455;52.710;6.502;2023-12-20T12:39:27;14.40;;;2.53;;
52554;SDS011;38455;52.710;6.502;2023-12-20T12:41:56;14.52;;;2.50;;
52554;SDS011;38455;52.710;6.502;2023-12-20T12:44:25;10.00;;;1.60;;
52554;SDS011;38455;52.710;6.502;2023-12-20T12:46:50;13.50;;;1.92;;
52554;SDS011;38455;52.710;6.502;2023-12-20T12:49:18;13.63;;;2.17;;
52554;SDS011;38455;52.710;6.502;2023-12-20T12:51:44;13.52;;;2.25;;
52554;SDS011;38455;52.710;6.502;2023-12-20T12:54:10;13.13;;;1.92;;
52554;SDS011;38455;52.710;6.502;2023-12-20T12:56:38;14.57;;;1.77;;
52554;SDS011;38455;52.710;6.502;2023-12-20T12:59:04;8.55;;;2.25;;
52554;SDS011;38455;52.710;6.502;2023-12-20T13:01:31;11.85;;;1.98;;
52554;SDS011;38455;52.710;6.502;2023-12-20T13:03:56;12.32;;;1.77;;
52554;SDS011;38455;52.710;6.502;2023-12-20T13:06:22;6.45;;;2.90;;
52554;SDS011;38455;52.710;6.502;2023-12-20T13:08:48;9.02;;;1.60;;
52554;SDS011;38455;52.710;6.502;2023-12-20T13:11:14;16.50;;;3.05;;
52554;SDS011;38455;52.710;6.502;2023-12-20T13:13:39;11.57;;;1.80;;
52554;SDS011;38455;52.710;6.502;2023-12-20T13:16:05;10.45;;;1.98;;
52554;SDS011;38455;52.710;6.502;2023-12-20T13:18:31;10.73;;;1.65;;
52554;SDS011;38455;52.710;6.502;2023-12-20T13:20:57;5.85;;;1.50;;
52554;SDS011;38455;52.710;6.502;2023-12-20T13:23:23;6.15;;;1.60;;
52554;SDS011;38455;52.710;6.502;2023-12-20T13:25:48;5.63;;;1.45;;
52554;SDS011;38455;52.710;6.502;2023-12-20T13:28:14;9.90;;;2.10;;
52554;SDS011;38455;52.710;6.502;2023-12-20T13:30:40;13.40;;;1.90;;
52554;SDS011;38455;52.710;6.502;2023-12-20T13:33:06;18.00;;;2.38;;
52554;SDS011;38455;52.710;6.502;2023-12-20T13:35:32;11.23;;;2.08;;
52554;SDS011;38455;52.710;6.502;2023-12-20T13:37:58;9.48;;;1.83;;
52554;SDS011;38455;52.710;6.502;2023-12-20T13:40:25;10.48;;;1.70;;
52554;SDS011;38455;52.710;6.502;2023-12-20T13:42:51;14.02;;;1.65;;
52554;SDS011;38455;52.710;6.502;2023-12-20T13:45:17;12.63;;;2.38;;
52554;SDS011;38455;52.710;6.502;2023-12-20T13:47:43;12.38;;;2.60;;
52554;SDS011;38455;52.710;6.502;2023-12-20T13:50:09;10.43;;;1.83;;
52554;SDS011;38455;52.710;6.502;2023-12-20T13:52:35;13.70;;;1.63;;
52554;SDS011;38455;52.710;6.502;2023-12-20T13:55:01;14.55;;;1.95;;
52554;SDS011;38455;52.710;6.502;2023-12-20T13:57:27;17.30;;;2.92;;
52554;SDS011;38455;52.710;6.502;2023-12-20T13:59:54;19.30;;;3.15;;
52554;SDS011;38455;52.710;6.502;2023-12-20T14:02:22;10.82;;;2.17;;
52554;SDS011;38455;52.710;6.502;2023-12-20T14:04:48;10.43;;;2.25;;
52554;SDS011;38455;52.710;6.502;2023-12-20T14:07:14;10.57;;;2.35;;
52554;SDS011;38455;52.710;6.502;2023-12-20T14:09:39;13.45;;;2.10;;
52554;SDS011;38455;52.710;6.502;2023-12-20T14:12:10;19.58;;;3.08;;
52554;SDS011;38455;52.710;6.502;2023-12-20T14:14:36;13.18;;;2.33;;
52554;SDS011;38455;52.710;6.502;2023-12-20T14:17:02;10.10;;;2.35;;
52554;SDS011;38455;52.710;6.502;2023-12-20T14:19:28;18.63;;;2.47;;
52554;SDS011;38455;52.710;6.502;2023-12-20T14:21:54;18.50;;;2.35;;
52554;SDS011;38455;52.710;6.502;2023-12-20T14:24:20;18.77;;;3.20;;
52554;SDS011;38455;52.710;6.502;2023-12-20T14:26:45;16.17;;;2.85;;
52554;SDS011;38455;52.710;6.502;2023-12-20T14:29:11;11.70;;;2.70;;
52554;SDS011;38455;52.710;6.502;2023-12-20T14:31:37;16.73;;;3.10;;
52554;SDS011;38455;52.710;6.502;2023-12-20T14:34:04;15.85;;;4.32;;